Terminal Aerodrome Forecast
Issued by NWS

Home | Current Version | Previous Version | Text Only | Print | Product List | Glossary On
Versions: 1 2 3 4 5 6 7 8 9 10 11 12 13 14 15 16 17 18 19 20 21 22 23 24 25 26 27 28 29
000
FTUS44 KLIX 172300
TAFHDC
TAF
KHDC 172338Z 1800/1824 VRB03KT P6SM FEW040 BKN250
     FM181000 00000KT P6SM SCT015 BKN250
      TEMPO 1810/1813 3SM BR BKN015
     FM181500 VRB04KT P6SM VCSH BKN025
     FM181800 VRB05KT P6SM VCSH BKN035 PROB30 1818/1824 3SM -TSRA
      BKN028CB=

USA.gov is the U.S. government's official web portal to all federal, state and local government web resources and services.